Time;durP1;ratioP1;P1;durP2;ratioP2;P2;SDS_P1;SDS_P2;PMS_P1;PMS_P2;Temp;Humidity;BMP_temperature;BMP_pressure;BME280_temperature;BME280_humidity;BME280_pressure;Samples;Min_cycle;Max_cycle;Signal;HPM_P1;HPM_P2
2022/08/14 00:00:50;;;;;;;0.20;0.20;;;23.80;75.00;;;;;;4952211;29;20078;-80
2022/08/14 00:03:26;;;;;;;0.17;0.17;;;23.90;75.50;;;;;;4935572;29;20028;-80
2022/08/14 00:05:54;;;;;;;1.45;1.17;;;23.90;75.70;;;;;;4935700;29;20031;-81
2022/08/14 00:08:20;;;;;;;1.85;0.15;;;23.90;76.00;;;;;;4937401;29;20039;-81
2022/08/14 00:10:46;;;;;;;0.13;0.13;;;23.90;76.40;;;;;;4955760;29;20435;-80
2022/08/14 00:13:14;;;;;;;0.15;0.10;;;23.90;76.70;;;;;;4955903;29;20155;-80
2022/08/14 00:15:44;;;;;;;0.98;0.70;;;23.80;76.90;;;;;;4938935;29;20035;-78
2022/08/14 00:18:13;;;;;;;0.20;0.20;;;23.90;77.20;;;;;;4938949;29;20039;-81
2022/08/14 00:20:42;;;;;;;0.05;0.05;;;23.90;77.40;;;;;;4955694;29;20281;-82
2022/08/14 00:23:10;;;;;;;0.43;0.43;;;24.00;77.50;;;;;;4938482;29;20027;-82
2022/08/14 00:25:36;;;;;;;0.17;0.17;;;24.00;77.50;;;;;;4923009;29;20085;-81
2022/08/14 00:28:06;;;;;;;0.17;0.17;;;24.00;77.40;;;;;;4938762;29;20027;-82
2022/08/14 00:30:32;;;;;;;0.20;0.20;;;24.00;77.50;;;;;;4938563;29;20027;-81
2022/08/14 00:32:58;;;;;;;0.68;0.43;;;24.10;77.20;;;;;;4938125;29;20031;-81
2022/08/14 00:35:24;;;;;;;0.57;0.28;;;24.10;77.20;;;;;;4955492;29;20070;-81
2022/08/14 00:37:51;;;;;;;0.30;0.30;;;24.10;77.10;;;;;;4955405;29;20039;-80
2022/08/14 00:40:19;;;;;;;0.10;0.10;;;24.10;77.30;;;;;;4955367;29;20030;-80
2022/08/14 00:42:46;;;;;;;0.30;0.30;;;24.10;77.60;;;;;;4955278;29;20033;-81
2022/08/14 00:45:14;;;;;;;2.28;0.80;;;24.00;77.60;;;;;;4938264;29;20023;-79
2022/08/14 00:47:42;;;;;;;0.10;0.10;;;24.00;77.90;;;;;;4938501;29;20082;-80
2022/08/14 00:50:11;;;;;;;1.95;0.85;;;23.90;78.30;;;;;;4938229;29;20090;-80
2022/08/14 00:52:37;;;;;;;0.40;0.20;;;23.90;78.80;;;;;;4938234;29;20035;-80
2022/08/14 00:55:07;;;;;;;0.40;0.30;;;23.90;79.00;;;;;;4938479;29;20028;-81
2022/08/14 00:57:35;;;;;;;0.43;0.30;;;23.80;79.20;;;;;;4955237;29;20416;-80
2022/08/14 01:00:11;;;;;;;0.10;0.10;;;23.80;79.20;;;;;;4937634;29;20430;-80
2022/08/14 01:02:39;;;;;;;0.35;0.35;;;23.80;79.00;;;;;;4955125;29;20027;-80
2022/08/14 01:05:06;;;;;;;3.72;0.20;;;23.80;78.30;;;;;;4944776;28;20046;-80
2022/08/14 01:07:33;;;;;;;0.45;0.32;;;23.70;77.90;;;;;;4965253;28;20054;-81
2022/08/14 01:10:03;;;;;;;0.20;0.20;;;23.60;77.90;;;;;;4956807;28;20026;-81
2022/08/14 01:12:32;;;;;;;0.30;0.30;;;23.40;78.80;;;;;;4957240;28;20038;-81
2022/08/14 01:15:00;;;;;;;0.40;0.22;;;23.30;79.90;;;;;;4974069;28;20563;-81
2022/08/14 01:21:02;;;;;;;0.13;0.13;;;23.40;79.30;;;;;;4974273;28;20432;-80
2022/08/14 01:22:59;;;;;;;0.40;0.35;;;23.20;80.20;;;;;;4958835;28;20037;-82
2022/08/14 01:25:24;;;;;;;0.10;0.10;;;23.20;80.70;;;;;;4973948;28;20121;-81
2022/08/14 01:27:54;;;;;;;0.32;0.32;;;23.30;81.30;;;;;;4973894;28;20097;-82
2022/08/14 01:30:25;;;;;;;0.85;0.65;;;23.30;81.80;;;;;;4973996;28;20669;-81
2022/08/14 01:32:51;;;;;;;0.43;0.43;;;23.30;81.70;;;;;;4956869;28;20036;-81
2022/08/14 01:35:17;;;;;;;0.80;0.43;;;23.30;81.90;;;;;;4956634;28;20035;-82
2022/08/14 01:37:47;;;;;;;0.00;0.00;;;23.20;82.30;;;;;;4956341;28;20027;-82
2022/08/14 01:40:13;;;;;;;;;;;23.10;82.00;;;;;;4974083;28;20073;-81
2022/08/14 01:42:42;;;;;;;0.28;0.20;;;23.10;81.50;;;;;;4973351;28;19914;-81
2022/08/14 01:45:11;;;;;;;0.45;0.43;;;23.10;80.60;;;;;;4940587;28;20030;-81
2022/08/14 01:47:38;;;;;;;1.20;1.00;;;23.00;81.20;;;;;;4956580;28;20518;-82
2022/08/14 01:50:06;;;;;;;0.32;0.30;;;23.00;80.90;;;;;;4973383;28;20039;-82
2022/08/14 01:52:35;;;;;;;0.40;0.40;;;22.70;81.20;;;;;;4955985;28;20435;-82
2022/08/14 01:55:07;;;;;;;0.77;0.77;;;22.70;81.60;;;;;;4956444;28;20125;-81
2022/08/14 01:57:36;;;;;;;0.75;0.75;;;22.60;82.00;;;;;;4956485;28;20027;-81
2022/08/14 02:00:07;;;;;;;0.55;0.50;;;22.70;81.80;;;;;;4980740;23;20162;-75
2022/08/14 02:02:33;;;;;;;0.60;0.55;;;22.80;82.10;;;;;;4962008;28;20065;-75
2022/08/14 02:05:01;;;;;;;0.17;0.17;;;22.90;82.50;;;;;;4954161;29;20058;-75
2022/08/14 02:07:31;;;;;;;0.85;0.25;;;22.90;82.70;;;;;;4936803;29;20035;-76
2022/08/14 02:09:57;;;;;;;0.20;0.20;;;22.80;83.00;;;;;;4954083;29;20023;-75
2022/08/14 02:12:23;;;;;;;1.15;1.05;;;22.80;83.50;;;;;;4936501;29;20472;-75
2022/08/14 02:14:51;;;;;;;0.03;0.03;;;22.80;84.00;;;;;;4956781;28;20451;-75
2022/08/14 02:17:22;;;;;;;0.17;0.10;;;22.80;84.10;;;;;;4946716;29;20023;-75
2022/08/14 02:19:49;;;;;;;;;;;22.80;84.00;;;;;;4953839;29;20034;-76
2022/08/14 02:22:17;;;;;;;0.00;0.00;;;22.80;84.70;;;;;;4920653;29;20016;-76
2022/08/14 02:24:45;;;;;;;1.92;0.43;;;22.70;84.80;;;;;;4953733;29;20031;-76
2022/08/14 02:27:10;;;;;;;0.00;0.00;;;22.60;85.10;;;;;;4936419;29;20023;-75
2022/08/14 02:29:39;;;;;;;0.60;0.55;;;22.50;85.40;;;;;;4936346;29;20042;-76
2022/08/14 02:32:06;;;;;;;0.22;0.22;;;22.40;86.00;;;;;;4935754;29;20027;-75
2022/08/14 02:34:35;;;;;;;0.15;0.15;;;22.30;86.50;;;;;;4936075;29;20045;-76
2022/08/14 02:37:08;;;;;;;0.10;0.10;;;22.20;87.30;;;;;;4953448;29;20121;-75
2022/08/14 02:39:44;;;;;;;0.17;0.17;;;22.10;88.00;;;;;;4936441;29;20039;-75
2022/08/14 02:42:14;;;;;;;0.15;0.15;;;22.10;88.60;;;;;;4953289;29;20055;-75
2022/08/14 02:44:44;;;;;;;0.47;0.45;;;22.00;88.70;;;;;;4936384;29;20403;-75
2022/08/14 02:47:10;;;;;;;1.00;0.65;;;21.80;89.00;;;;;;4953318;29;20046;-76
2022/08/14 02:49:37;;;;;;;1.95;0.43;;;21.80;89.60;;;;;;4936248;29;20136;-75
2022/08/14 02:52:06;;;;;;;1.10;1.00;;;21.60;89.90;;;;;;4952908;29;20035;-75
2022/08/14 02:54:34;;;;;;;4.28;0.47;;;21.50;90.10;;;;;;4936383;29;20380;-75
2022/08/14 02:57:04;;;;;;;0.17;0.17;;;21.30;90.10;;;;;;4936136;29;20035;-76
2022/08/14 02:59:32;;;;;;;0.13;0.13;;;21.20;90.50;;;;;;4936229;29;20042;-76
2022/08/14 03:01:58;;;;;;;0.25;0.25;;;21.20;90.70;;;;;;4953109;29;20039;-75
2022/08/14 03:04:27;;;;;;;0.35;0.15;;;21.20;90.60;;;;;;4936034;29;20036;-75
2022/08/14 03:06:53;;;;;;;0.20;0.20;;;21.30;90.40;;;;;;4920377;29;20039;-76
2022/08/14 03:09:19;;;;;;;0.77;0.50;;;21.50;90.20;;;;;;4953097;29;20042;-76
2022/08/14 03:11:45;;;;;;;2.75;0.80;;;21.50;89.80;;;;;;4952759;29;20039;-76
2022/08/14 03:14:11;;;;;;;2.10;0.93;;;21.50;89.80;;;;;;4953058;29;20035;-76
2022/08/14 03:16:39;;;;;;;1.85;0.95;;;21.40;90.00;;;;;;4967073;28;20035;-76
2022/08/14 03:19:07;;;;;;;0.40;0.40;;;21.30;90.00;;;;;;4954871;28;20039;-76
2022/08/14 03:21:35;;;;;;;2.17;0.65;;;21.30;90.20;;;;;;4954697;28;20030;-75
2022/08/14 03:24:10;;;;;;;1.85;1.13;;;21.20;90.30;;;;;;4972286;28;20054;-76
2022/08/14 03:26:38;;;;;;;0.60;0.60;;;21.20;90.50;;;;;;4972433;28;20051;-76
2022/08/14 03:29:05;;;;;;;0.80;0.70;;;21.20;90.50;;;;;;4954340;28;20038;-76
2022/08/14 03:31:31;;;;;;;0.77;0.77;;;21.30;90.60;;;;;;4971304;28;20023;-77
2022/08/14 03:33:58;;;;;;;0.85;0.73;;;21.40;90.50;;;;;;4972005;28;20395;-76
2022/08/14 03:36:24;;;;;;;0.60;0.60;;;21.40;90.40;;;;;;4972398;28;20030;-76
2022/08/14 03:38:52;;;;;;;2.15;0.63;;;21.40;90.40;;;;;;4971786;28;20030;-77
2022/08/14 03:41:24;;;;;;;0.98;0.95;;;21.50;90.30;;;;;;4954937;28;20130;-77
2022/08/14 03:43:57;;;;;;;0.57;0.57;;;21.50;90.00;;;;;;4956853;28;20023;-77
2022/08/14 03:46:26;;;;;;;5.93;1.27;;;21.40;90.00;;;;;;4976044;28;20035;-77
2022/08/14 03:48:53;;;;;;;0.43;0.22;;;21.40;90.20;;;;;;4975578;28;20038;-77
2022/08/14 03:51:21;;;;;;;1.85;0.95;;;21.50;90.40;;;;;;4976021;28;20027;-77
2022/08/14 03:53:48;;;;;;;0.40;0.40;;;21.50;90.50;;;;;;4958029;28;20619;-76
2022/08/14 03:56:15;;;;;;;1.67;1.20;;;21.50;90.50;;;;;;4975754;28;20041;-77
2022/08/14 03:58:48;;;;;;;0.40;0.40;;;21.50;90.50;;;;;;4975761;28;20122;-77
2022/08/14 04:01:18;;;;;;;4.18;1.65;;;21.50;90.80;;;;;;4958346;28;20403;-77
2022/08/14 04:03:46;;;;;;;2.10;1.77;;;21.50;90.60;;;;;;4975237;28;20117;-77
2022/08/14 04:06:13;;;;;;;0.88;0.85;;;21.50;90.50;;;;;;4974107;28;20030;-77
2022/08/14 04:08:40;;;;;;;1.27;1.17;;;21.50;90.60;;;;;;4975405;28;20178;-77
2022/08/14 04:11:07;;;;;;;1.85;1.08;;;21.50;90.70;;;;;;4974228;28;20041;-77
2022/08/14 04:13:37;;;;;;;1.48;1.35;;;21.40;91.10;;;;;;4975182;28;20046;-77
2022/08/14 04:16:09;;;;;;;0.63;0.63;;;21.50;91.10;;;;;;4957928;28;20078;-77
2022/08/14 04:18:45;;;;;;;0.20;0.20;;;21.50;91.30;;;;;;4958250;28;20135;-77
2022/08/14 04:21:13;;;;;;;1.48;1.38;;;21.50;91.30;;;;;;4975183;28;20034;-76
2022/08/14 04:23:39;;;;;;;8.20;3.03;;;21.50;91.60;;;;;;4973709;28;20026;-77
2022/08/14 04:26:09;;;;;;;2.50;2.15;;;21.50;91.70;;;;;;4975086;28;20026;-77
2022/08/14 04:28:37;;;;;;;2.17;1.50;;;21.50;91.60;;;;;;4958240;28;20479;-77
2022/08/14 04:31:05;;;;;;;4.38;2.85;;;21.50;91.80;;;;;;4957769;28;20031;-77
2022/08/14 04:33:32;;;;;;;1.35;0.73;;;21.40;92.20;;;;;;4957280;28;20027;-77
2022/08/14 04:35:57;;;;;;;0.75;0.68;;;21.20;92.60;;;;;;4974742;28;20494;-77
2022/08/14 04:43:53;;;;;;;2.75;1.75;;;21.20;93.20;;;;;;4974723;28;20028;-77
2022/08/14 04:46:21;;;;;;;2.55;2.30;;;21.20;93.10;;;;;;4957193;28;20034;-77
2022/08/14 04:48:47;;;;;;;2.92;2.20;;;21.30;93.40;;;;;;4957708;28;20506;-77
2022/08/14 04:51:17;;;;;;;1.02;0.93;;;21.20;93.50;;;;;;4957401;28;20117;-77
2022/08/14 04:53:46;;;;;;;1.70;1.55;;;21.10;93.90;;;;;;4972920;28;20035;-77
2022/08/14 04:56:15;;;;;;;0.80;0.80;;;21.00;94.40;;;;;;4973672;28;20034;-77
2022/08/14 04:58:41;;;;;;;1.73;1.25;;;21.00;94.80;;;;;;4974114;28;20038;-77
2022/08/14 05:01:09;;;;;;;6.03;2.20;;;20.90;95.00;;;;;;4956992;28;20546;-75
2022/08/14 05:03:37;;;;;;;2.17;2.03;;;20.90;95.40;;;;;;4957085;28;20101;-77
2022/08/14 05:06:09;;;;;;;1.23;0.95;;;20.80;96.00;;;;;;4974339;28;20022;-77
2022/08/14 05:08:36;;;;;;;1.38;1.27;;;20.70;96.60;;;;;;4957698;28;20047;-77
2022/08/14 05:11:05;;;;;;;1.08;1.02;;;20.80;96.80;;;;;;4973871;28;20034;-77
2022/08/14 05:13:35;;;;;;;0.47;0.47;;;20.90;96.70;;;;;;4974365;28;20398;-77
2022/08/14 05:16:04;;;;;;;2.72;2.28;;;20.90;96.70;;;;;;4957290;28;20038;-77
2022/08/14 05:18:34;;;;;;;1.38;1.27;;;21.10;96.50;;;;;;4973320;28;20039;-77
2022/08/14 05:21:03;;;;;;;1.80;1.65;;;21.20;96.50;;;;;;4974910;28;20085;-75
2022/08/14 05:23:33;;;;;;;1.42;1.23;;;21.30;96.30;;;;;;4957011;28;20035;-75
2022/08/14 05:26:12;;;;;;;1.58;0.93;;;21.40;96.20;;;;;;4957101;28;20497;-75
2022/08/14 05:28:43;;;;;;;4.38;2.35;;;21.50;95.80;;;;;;4956556;28;20081;-77
2022/08/14 05:31:16;;;;;;;2.17;1.67;;;21.50;95.90;;;;;;4973852;28;20070;-75
2022/08/14 05:33:42;;;;;;;2.05;1.55;;;21.50;96.10;;;;;;4957074;28;20543;-76
2022/08/14 05:36:10;;;;;;;5.28;1.65;;;21.40;96.40;;;;;;4973878;28;20066;-76
2022/08/14 05:38:44;;;;;;;1.00;0.85;;;21.40;96.80;;;;;;4956548;28;20634;-76
2022/08/14 05:41:17;;;;;;;2.00;1.88;;;21.30;97.10;;;;;;4956475;28;20027;-76
2022/08/14 05:43:46;;;;;;;3.85;2.33;;;21.30;97.60;;;;;;4973717;28;20031;-76
2022/08/14 05:46:14;;;;;;;1.38;1.27;;;21.30;97.40;;;;;;4972898;28;20038;-76
2022/08/14 05:48:40;;;;;;;2.50;1.05;;;21.40;97.50;;;;;;4955729;28;20113;-76
2022/08/14 05:51:06;;;;;;;2.20;1.63;;;21.20;97.90;;;;;;4955608;28;20110;-76
2022/08/14 05:53:32;;;;;;;2.38;2.13;;;21.30;98.20;;;;;;4955622;28;20416;-76
2022/08/14 05:55:58;;;;;;;2.20;1.98;;;21.30;98.20;;;;;;4971266;28;20089;-75
2022/08/14 05:58:24;;;;;;;0.57;0.57;;;21.00;98.80;;;;;;4972384;28;20035;-74
2022/08/14 06:00:50;;;;;;;5.95;2.03;;;21.10;99.00;;;;;;4955305;28;20031;-76
2022/08/14 06:03:19;;;;;;;1.67;1.50;;;21.10;99.20;;;;;;4973291;28;20027;-76
2022/08/14 06:05:52;;;;;;;1.23;1.13;;;21.10;99.50;;;;;;4972828;28;20121;-74
2022/08/14 06:08:25;;;;;;;4.35;1.52;;;21.20;99.40;;;;;;4940292;28;20034;-75
2022/08/14 06:10:53;;;;;;;6.82;1.83;;;21.20;99.40;;;;;;4939655;28;20041;-77
2022/08/14 06:13:20;;;;;;;2.95;1.75;;;21.30;99.60;;;;;;4972930;28;20030;-74
2022/08/14 06:15:49;;;;;;;1.33;1.23;;;21.30;99.50;;;;;;4972995;28;20035;-73
2022/08/14 06:18:16;;;;;;;2.03;1.83;;;21.40;99.60;;;;;;4972143;28;20034;-73
2022/08/14 06:20:42;;;;;;;0.60;0.60;;;21.50;99.60;;;;;;4955311;28;20483;-73
2022/08/14 06:23:08;;;;;;;1.10;0.95;;;21.60;99.20;;;;;;4972407;28;20036;-73
2022/08/14 06:25:34;;;;;;;1.15;1.05;;;21.70;99.20;;;;;;4955185;28;20050;-73
2022/08/14 06:28:00;;;;;;;2.10;1.27;;;21.80;99.00;;;;;;4972388;28;20038;-73
2022/08/14 06:30:30;;;;;;;0.80;0.77;;;21.80;98.90;;;;;;4955183;28;20443;-69
2022/08/14 06:32:56;;;;;;;1.00;0.60;;;21.90;98.90;;;;;;4955187;28;20046;-69
2022/08/14 06:35:22;;;;;;;0.47;0.47;;;22.00;99.00;;;;;;4939230;28;20034;-69
2022/08/14 06:37:52;;;;;;;1.80;1.42;;;22.10;99.00;;;;;;4972533;28;20074;-69
2022/08/14 06:40:26;;;;;;;0.57;0.57;;;22.20;98.80;;;;;;4972274;28;20034;-69
2022/08/14 06:42:53;;;;;;;0.55;0.55;;;22.30;98.50;;;;;;4972637;28;20027;-69
2022/08/14 06:45:19;;;;;;;0.52;0.32;;;22.40;98.40;;;;;;4972606;28;20117;-69
2022/08/14 06:47:46;;;;;;;1.30;1.20;;;22.50;98.00;;;;;;4972631;28;20111;-69
2022/08/14 06:50:19;;;;;;;2.83;1.85;;;22.60;97.70;;;;;;4972185;28;20113;-69
2022/08/14 06:52:45;;;;;;;0.60;0.55;;;22.60;97.50;;;;;;4972309;28;20546;-69
2022/08/14 06:55:13;;;;;;;0.80;0.80;;;22.70;97.30;;;;;;4972319;28;20121;-69
2022/08/14 06:57:44;;;;;;;1.67;1.33;;;22.80;97.30;;;;;;4970925;28;20104;-69
2022/08/14 07:00:22;;;;;;;1.08;0.77;;;22.90;97.00;;;;;;4955029;28;20030;-69
2022/08/14 07:05:47;;;;;;;1.38;1.20;;;23.10;96.50;;;;;;4957689;28;20030;-69
2022/08/14 07:08:28;;;;;;;0.13;0.13;;;23.30;96.30;;;;;;4972405;28;20034;-68
2022/08/14 07:10:57;;;;;;;1.10;1.05;;;23.40;96.00;;;;;;4939748;28;20395;-70
2022/08/14 07:13:24;;;;;;;0.22;0.20;;;23.40;95.70;;;;;;4971844;28;20384;-69
2022/08/14 07:15:55;;;;;;;0.93;0.88;;;23.50;95.70;;;;;;4955108;28;20046;-69
2022/08/14 07:18:25;;;;;;;0.65;0.50;;;23.40;95.50;;;;;;4941227;28;20027;-69
2022/08/14 07:20:52;;;;;;;0.57;0.57;;;23.30;95.60;;;;;;4958857;28;20034;-69
2022/08/14 07:23:20;;;;;;;0.55;0.55;;;23.40;95.40;;;;;;4974969;28;20053;-69
2022/08/14 07:25:48;;;;;;;1.23;0.85;;;23.60;95.60;;;;;;4976331;28;20475;-69
2022/08/14 07:28:22;;;;;;;0.47;0.47;;;23.70;95.20;;;;;;4958534;28;20061;-70
2022/08/14 07:30:49;;;;;;;3.35;0.98;;;23.80;94.80;;;;;;4958950;28;20022;-82
2022/08/14 07:33:15;;;;;;;0.35;0.30;;;23.90;94.60;;;;;;4959106;28;20038;-80
2022/08/14 07:35:41;;;;;;;1.75;1.45;;;24.00;94.20;;;;;;4959145;28;20492;-76
2022/08/14 07:38:07;;;;;;;0.32;0.30;;;24.20;94.20;;;;;;4976135;28;20031;-74
2022/08/14 07:40:33;;;;;;;1.73;1.20;;;24.20;93.80;;;;;;4975641;28;20034;-71
2022/08/14 07:43:00;;;;;;;0.63;0.60;;;24.30;93.40;;;;;;4974886;28;20063;-73
2022/08/14 07:45:27;;;;;;;0.32;0.30;;;24.50;93.20;;;;;;4955422;28;20121;-68
2022/08/14 07:47:56;;;;;;;0.70;0.70;;;24.50;92.40;;;;;;4973046;28;20440;-68
2022/08/14 07:50:23;;;;;;;0.55;0.50;;;24.60;92.50;;;;;;4973247;28;20558;-67
2022/08/14 07:52:49;;;;;;;0.52;0.50;;;24.80;92.10;;;;;;4955338;28;20036;-68
2022/08/14 07:55:17;;;;;;;0.55;0.55;;;24.90;91.60;;;;;;4960962;28;20023;-67
2022/08/14 07:57:46;;;;;;;0.22;0.22;;;25.00;91.40;;;;;;4975268;28;20031;-69
2022/08/14 08:00:22;;;;;;;1.63;1.40;;;25.20;90.90;;;;;;4957718;28;20042;-69
2022/08/14 08:02:51;;;;;;;0.25;0.22;;;25.30;90.60;;;;;;4958169;28;20035;-68
2022/08/14 08:05:20;;;;;;;0.22;0.20;;;25.30;90.00;;;;;;4975302;28;20130;-69
2022/08/14 08:07:46;;;;;;;0.45;0.45;;;25.40;90.20;;;;;;4975251;28;20058;-69
2022/08/14 08:10:31;;;;;;;0.35;0.35;;;25.40;89.40;;;;;;4974540;28;20031;-69
2022/08/14 08:13:01;;;;;;;1.23;0.75;;;25.40;90.00;;;;;;4957110;28;20023;-68
2022/08/14 08:15:46;;;;;;;0.10;0.10;;;25.60;89.10;;;;;;4942229;28;20031;-69
2022/08/14 08:18:15;;;;;;;0.45;0.32;;;25.70;88.40;;;;;;4973674;28;20058;-68
2022/08/14 08:20:47;;;;;;;4.18;0.88;;;25.80;87.00;;;;;;4975030;28;20046;-68
2022/08/14 08:23:15;;;;;;;0.52;0.38;;;25.90;87.00;;;;;;4974874;28;20113;-68
2022/08/14 08:25:43;;;;;;;0.10;0.10;;;26.00;85.20;;;;;;4974685;28;20476;-68
2022/08/14 08:28:22;;;;;;;1.27;0.63;;;26.00;84.90;;;;;;4973871;28;20045;-68
2022/08/14 08:31:00;;;;;;;0.22;0.22;;;26.10;83.90;;;;;;4973007;28;20030;-69
2022/08/14 08:33:29;;;;;;;0.93;0.88;;;26.10;84.00;;;;;;4958105;28;20070;-69
2022/08/14 08:36:02;;;;;;;1.38;1.13;;;26.20;82.90;;;;;;4973357;28;20046;-67
2022/08/14 08:38:28;;;;;;;0.75;0.75;;;26.30;82.80;;;;;;4974917;28;20097;-67
2022/08/14 08:40:57;;;;;;;1.00;0.43;;;26.40;81.40;;;;;;4974016;28;20479;-68
2022/08/14 08:43:28;;;;;;;1.35;0.93;;;26.50;81.40;;;;;;4956809;28;20546;-68
2022/08/14 08:46:10;;;;;;;0.00;0.00;;;26.50;80.90;;;;;;4974019;28;20394;-69
2022/08/14 08:48:51;;;;;;;3.28;1.52;;;26.60;80.90;;;;;;4955110;28;20082;-68
2022/08/14 08:51:25;;;;;;;1.35;0.20;;;26.60;80.40;;;;;;4974384;28;20065;-67
2022/08/14 08:54:07;;;;;;;0.30;0.30;;;26.70;80.80;;;;;;4974400;28;20043;-67
2022/08/14 08:56:43;;;;;;;0.77;0.68;;;26.60;79.90;;;;;;4958038;28;20030;-67
2022/08/14 08:59:27;;;;;;;0.20;0.20;;;26.80;79.40;;;;;;4956696;28;20869;-68
2022/08/14 09:01:57;;;;;;;1.38;0.63;;;27.00;78.30;;;;;;4974022;28;20046;-68
2022/08/14 09:04:29;;;;;;;0.47;0.47;;;27.10;77.60;;;;;;4974308;28;20062;-68
2022/08/14 09:06:56;;;;;;;0.15;0.15;;;27.00;77.10;;;;;;4957162;28;20038;-68
2022/08/14 09:09:28;;;;;;;0.20;0.20;;;27.00;76.40;;;;;;4973875;28;20114;-71
2022/08/14 09:11:56;;;;;;;0.55;0.55;;;27.10;75.60;;;;;;4974345;28;20031;-76
2022/08/14 09:14:30;;;;;;;0.82;0.77;;;27.20;76.00;;;;;;4974038;28;20479;-76
2022/08/14 09:16:58;;;;;;;0.17;0.17;;;27.40;75.00;;;;;;4956412;28;20043;-77
2022/08/14 09:19:26;;;;;;;0.47;0.35;;;27.40;75.10;;;;;;4956654;28;20046;-76
2022/08/14 09:21:53;;;;;;;0.15;0.13;;;27.60;75.80;;;;;;4974273;28;20029;-76
2022/08/14 09:24:20;;;;;;;0.13;0.10;;;27.80;75.10;;;;;;4956989;28;20027;-78
2022/08/14 09:26:46;;;;;;;0.32;0.30;;;27.90;74.20;;;;;;4973434;28;20471;-77
2022/08/14 09:29:12;;;;;;;0.47;0.20;;;27.60;73.90;;;;;;4956394;28;20605;-75
2022/08/14 09:31:55;;;;;;;1.42;0.70;;;27.80;74.60;;;;;;4955349;28;20034;-75
2022/08/14 09:35:01;;;;;;;0.35;0.35;;;27.90;73.40;;;;;;4956065;28;20030;-76
2022/08/14 09:37:51;;;;;;;0.38;0.38;;;27.90;72.50;;;;;;4956968;28;20126;-74
2022/08/14 09:40:55;;;;;;;0.20;0.17;;;28.10;73.00;;;;;;4972929;28;20046;-76
2022/08/14 09:44:07;;;;;;;0.20;0.20;;;28.20;72.10;;;;;;4958547;28;20041;-74
2022/08/14 09:46:34;;;;;;;6.85;0.68;;;28.50;70.60;;;;;;4965701;28;20050;-76
2022/08/14 09:49:05;;;;;;;0.28;0.20;;;28.70;69.40;;;;;;4971942;28;20030;-77
2022/08/14 09:51:35;;;;;;;0.28;0.20;;;28.90;68.70;;;;;;4973687;28;20590;-78
2022/08/14 09:54:10;;;;;;;0.98;0.90;;;28.90;67.80;;;;;;4973370;28;20019;-75
2022/08/14 09:56:47;;;;;;;0.75;0.75;;;29.20;68.90;;;;;;4972425;28;20066;-74
2022/08/14 09:59:16;;;;;;;0.05;0.05;;;29.30;68.20;;;;;;4971390;28;20034;-75
2022/08/14 10:01:43;;;;;;;2.00;0.60;;;29.40;68.00;;;;;;4952717;29;20026;-78
2022/08/14 10:04:27;;;;;;;0.98;0.70;;;29.40;65.80;;;;;;4951618;29;20090;-78
2022/08/14 10:06:53;;;;;;;0.45;0.45;;;29.60;65.20;;;;;;4952777;29;20098;-80
2022/08/14 10:09:20;;;;;;;1.23;0.88;;;29.60;64.10;;;;;;4953692;29;20039;-77
2022/08/14 10:11:58;;;;;;;0.38;0.35;;;29.80;63.00;;;;;;4952814;29;20027;-74
2022/08/14 10:14:29;;;;;;;0.17;0.17;;;30.00;62.40;;;;;;4953959;29;20031;-74
2022/08/14 10:16:57;;;;;;;0.93;0.40;;;30.30;61.40;;;;;;4955775;28;20034;-75
2022/08/14 10:19:27;;;;;;;0.00;0.00;;;30.30;60.60;;;;;;4955506;28;20027;-78
2022/08/14 10:22:02;;;;;;;0.35;0.25;;;30.20;61.00;;;;;;4955975;28;20070;-77
2022/08/14 10:24:38;;;;;;;0.20;0.17;;;30.10;60.60;;;;;;4971968;28;20491;-77
2022/08/14 10:27:24;;;;;;;6.70;0.22;;;30.30;60.90;;;;;;4971637;28;20034;-74
2022/08/14 10:30:03;;;;;;;0.20;0.20;;;30.50;60.20;;;;;;4952353;28;20117;-75
2022/08/14 10:32:29;;;;;;;1.27;0.40;;;30.50;60.90;;;;;;4953184;29;20037;-75
2022/08/14 10:35:08;;;;;;;19.27;0.98;;;30.60;60.60;;;;;;4952381;29;20047;-73
2022/08/14 10:37:48;;;;;;;0.40;0.40;;;30.70;61.00;;;;;;4953057;28;20053;-74
2022/08/14 10:40:30;;;;;;;0.15;0.15;;;30.70;60.80;;;;;;4952111;29;20047;-74
2022/08/14 10:42:56;;;;;;;1.60;0.65;;;31.00;59.50;;;;;;4952890;29;20063;-74
2022/08/14 10:45:33;;;;;;;0.00;0.00;;;31.40;58.90;;;;;;4956497;28;20549;-68
2022/08/14 10:48:02;;;;;;;0.63;0.50;;;31.60;58.10;;;;;;4972327;28;20556;-67
2022/08/14 10:50:34;;;;;;;0.20;0.10;;;31.70;57.30;;;;;;4971126;28;20035;-67
2022/08/14 10:53:04;;;;;;;0.22;0.15;;;31.90;56.70;;;;;;4970730;28;20479;-68
2022/08/14 10:55:38;;;;;;;0.15;0.15;;;32.00;56.60;;;;;;4971892;28;20050;-69
2022/08/14 10:58:09;;;;;;;0.00;0.00;;;32.00;56.70;;;;;;4971146;28;20399;-68
2022/08/14 11:00:37;;;;;;;0.25;0.25;;;31.70;57.10;;;;;;4972169;28;20498;-68
2022/08/14 11:03:12;;;;;;;0.00;0.00;;;31.80;56.90;;;;;;4955112;28;20114;-67
2022/08/14 11:05:59;;;;;;;0.30;0.30;;;31.80;57.70;;;;;;4971184;28;20039;-68
2022/08/14 11:08:31;;;;;;;7.80;0.50;;;32.10;56.20;;;;;;4954811;28;20035;-68
2022/08/14 11:11:00;;;;;;;0.00;0.00;;;32.10;55.20;;;;;;4971720;28;20030;-68
2022/08/14 11:13:30;;;;;;;0.00;0.00;;;31.90;55.40;;;;;;4955160;28;20089;-69
2022/08/14 11:15:59;;;;;;;0.10;0.10;;;32.00;55.40;;;;;;4972278;28;20142;-67
2022/08/14 11:18:28;;;;;;;0.15;0.13;;;32.10;55.50;;;;;;4972355;28;20050;-69
2022/08/14 11:20:58;;;;;;;0.00;0.00;;;32.00;55.50;;;;;;4971794;28;20045;-69
2022/08/14 11:23:32;;;;;;;0.00;0.00;;;32.00;55.00;;;;;;4955349;28;20033;-69
2022/08/14 11:26:00;;;;;;;8.75;0.45;;;32.00;54.20;;;;;;4972236;28;20566;-69
2022/08/14 11:28:31;;;;;;;0.10;0.10;;;32.20;54.70;;;;;;4955315;28;20038;-70
2022/08/14 11:31:00;;;;;;;0.15;0.15;;;32.30;54.80;;;;;;4955087;28;20039;-70
2022/08/14 11:33:33;;;;;;;0.55;0.45;;;32.40;54.70;;;;;;4954993;28;20047;-70
2022/08/14 11:36:04;;;;;;;5.75;0.82;;;32.50;54.20;;;;;;4955923;28;20027;-70
2022/08/14 11:38:41;;;;;;;0.10;0.10;;;32.70;54.50;;;;;;4972385;28;20030;-69
2022/08/14 11:41:10;;;;;;;0.45;0.45;;;32.90;54.20;;;;;;4972184;28;20122;-70
2022/08/14 11:43:46;;;;;;;0.20;0.20;;;32.80;54.10;;;;;;4955061;28;20031;-69
2022/08/14 11:46:15;;;;;;;0.00;0.00;;;32.80;54.20;;;;;;4951462;29;20377;-70
2022/08/14 11:48:52;;;;;;;0.00;0.00;;;33.10;53.80;;;;;;4920138;29;20031;-70
2022/08/14 11:51:25;;;;;;;0.30;0.30;;;32.90;53.60;;;;;;4936226;29;20130;-70
2022/08/14 11:54:12;;;;;;;0.20;0.10;;;32.90;53.90;;;;;;4952641;29;20043;-70
2022/08/14 11:56:42;;;;;;;0.17;0.17;;;33.10;53.70;;;;;;4935281;28;20035;-69
2022/08/14 11:59:16;;;;;;;;;;;32.90;53.90;;;;;;4971788;28;20471;-69
2022/08/14 12:01:44;;;;;;;0.45;0.30;;;33.10;53.40;;;;;;4954271;28;19957;-70
2022/08/14 12:04:18;;;;;;;0.17;0.17;;;32.80;53.20;;;;;;4954799;28;20694;-69
2022/08/14 12:06:54;;;;;;;2.72;1.77;;;32.70;53.30;;;;;;4957034;28;20395;-70
2022/08/14 12:09:36;;;;;;;0.40;0.32;;;33.10;53.80;;;;;;4940731;28;20027;-70
2022/08/14 12:12:13;;;;;;;0.10;0.10;;;32.80;53.50;;;;;;4957384;28;20047;-70
2022/08/14 12:14:59;;;;;;;0.45;0.45;;;33.10;52.60;;;;;;4974121;28;20915;-70
2022/08/14 12:17:32;;;;;;;0.08;0.08;;;33.20;52.70;;;;;;4974034;28;20031;-70
2022/08/14 12:20:08;;;;;;;0.52;0.30;;;33.40;52.70;;;;;;4957070;28;20159;-69
2022/08/14 12:22:39;;;;;;;0.43;0.32;;;33.40;53.30;;;;;;4974017;28;20031;-70
2022/08/14 12:25:22;;;;;;;0.32;0.30;;;33.10;53.10;;;;;;4974077;28;20034;-69
2022/08/14 12:27:51;;;;;;;0.13;0.03;;;33.60;52.70;;;;;;4957171;28;20045;-70
2022/08/14 12:30:53;;;;;;;0.13;0.13;;;33.80;52.00;;;;;;4973561;28;20109;-70
2022/08/14 12:33:31;;;;;;;0.55;0.40;;;33.60;52.50;;;;;;4971192;28;20042;-69
2022/08/14 12:36:05;;;;;;;0.28;0.28;;;34.20;52.30;;;;;;4973938;28;20129;-70
2022/08/14 12:38:35;;;;;;;0.77;0.63;;;34.00;52.50;;;;;;4957180;28;20479;-70
2022/08/14 12:41:02;;;;;;;1.08;0.75;;;34.50;50.70;;;;;;4973681;28;20122;-70
2022/08/14 12:43:28;;;;;;;0.32;0.10;;;34.30;50.60;;;;;;4973583;28;20078;-70
2022/08/14 12:45:55;;;;;;;0.30;0.22;;;34.30;51.00;;;;;;4973655;28;20031;-70
2022/08/14 12:48:22;;;;;;;0.70;0.32;;;34.60;51.30;;;;;;4973938;28;20513;-70
2022/08/14 12:50:51;;;;;;;0.00;0.00;;;34.50;51.40;;;;;;4973487;28;20497;-70
2022/08/14 12:53:18;;;;;;;0.52;0.32;;;34.50;51.40;;;;;;4971998;28;20475;-70
2022/08/14 12:55:45;;;;;;;0.85;0.32;;;34.40;51.00;;;;;;4972500;28;20390;-70
2022/08/14 12:58:11;;;;;;;0.45;0.43;;;34.80;51.60;;;;;;4972478;28;20335;-70
2022/08/14 13:00:51;;;;;;;0.30;0.25;;;34.90;50.80;;;;;;4936251;28;1061688;-70
2022/08/14 13:03:28;;;;;;;0.23;0.23;;;35.70;50.50;;;;;;4957398;28;20030;-70
2022/08/14 13:05:55;;;;;;;0.10;0.10;;;35.90;50.20;;;;;;4973476;28;20321;-70
2022/08/14 13:08:21;;;;;;;0.10;0.10;;;36.30;49.80;;;;;;4974618;28;20033;-70
2022/08/14 13:10:49;;;;;;;0.13;0.03;;;35.90;48.90;;;;;;4972996;28;20031;-70
2022/08/14 13:13:17;;;;;;;1.02;0.93;;;35.30;49.20;;;;;;4974176;28;20073;-69
2022/08/14 13:15:45;;;;;;;0.45;0.38;;;35.30;49.80;;;;;;4967429;28;20050;-70